Time;durP1;ratioP1;P1;durP2;ratioP2;P2;SDS_P1;SDS_P2;PMS_P1;PMS_P2;Temp;Humidity;BMP_temperature;BMP_pressure;BME280_temperature;BME280_humidity;BME280_pressure;Samples;Min_cycle;Max_cycle;Signal;HPM_P1;HPM_P2
2021/12/28 00:00:58;;;;;;;50.25;22.90;;;;;;;;;;2107784;28;20050;-45
2021/12/28 00:01:59;;;;;;;46.78;23.08;;;;;;;;;;2098875;28;20068;-45
2021/12/28 00:03:01;;;;;;;43.35;21.20;;;;;;;;;;2098535;28;20103;-44
2021/12/28 00:04:04;;;;;;;44.67;21.67;;;;;;;;;;2102981;28;20036;-45
2021/12/28 00:05:06;;;;;;;47.55;23.80;;;;;;;;;;2098289;28;20503;-45
2021/12/28 00:06:08;;;;;;;42.72;21.52;;;;;;;;;;2098395;28;20048;-44
2021/12/28 00:07:09;;;;;;;;;;;;;;;;;;2106713;28;20100;-44
2021/12/28 00:08:10;;;;;;;40.20;18.70;;;;;;;;;;2098286;28;20355;-45
2021/12/28 00:09:11;;;;;;;42.75;21.02;;;;;;;;;;2098269;28;20135;-45
2021/12/28 00:10:14;;;;;;;39.05;20.05;;;;;;;;;;2104807;28;20097;-44
2021/12/28 00:11:15;;;;;;;45.95;21.73;;;;;;;;;;2106701;28;20040;-46
2021/12/28 00:12:16;;;;;;;38.17;19.98;;;;;;;;;;2106167;28;20584;-45
2021/12/28 00:13:17;;;;;;;46.10;22.77;;;;;;;;;;2105715;28;20589;-45
2021/12/28 00:14:19;;;;;;;40.50;20.00;;;;;;;;;;2107021;28;20368;-44
2021/12/28 00:15:33;;;;;;;;;;;;;;;;;;2105593;28;20308;-45
2021/12/28 00:17:58;;;;;;;38.15;18.17;;;;;;;;;;2112419;28;19981;-45
2021/12/28 00:18:00;;;;;;;36.33;17.95;;;;;;;;;;2115175;28;20047;-44
2021/12/28 00:19:02;;;;;;;44.30;20.40;;;;;;;;;;2104437;28;20125;-45
2021/12/28 00:20:03;;;;;;;;;;;;;;;;;;2107074;28;20040;-45
2021/12/28 00:21:05;;;;;;;41.45;17.88;;;;;;;;;;2106170;28;20011;-44
2021/12/28 00:22:05;;;;;;;;;;;;;;;;;;2106287;28;20217;-44
2021/12/28 00:23:07;;;;;;;42.80;16.92;;;;;;;;;;2098424;28;20297;-45
2021/12/28 00:24:08;;;;;;;;;;;;;;;;;;2099440;28;20158;-45
2021/12/28 00:25:11;;;;;;;39.63;16.13;;;;;;;;;;2105223;28;20289;-44
2021/12/28 00:26:14;;;;;;;43.38;20.38;;;;;;;;;;2098146;28;20047;-44
2021/12/28 00:27:15;;;;;;;38.15;20.00;;;;;;;;;;2100000;28;20123;-45
2021/12/28 00:28:16;;;;;;;39.10;19.60;;;;;;;;;;2105949;28;20117;-45
2021/12/28 00:29:17;;;;;;;40.33;19.85;;;;;;;;;;2106714;28;20068;-44
2021/12/28 00:30:19;;;;;;;37.50;19.52;;;;;;;;;;2105806;28;20082;-45
2021/12/28 00:31:22;;;;;;;43.15;21.38;;;;;;;;;;2103250;28;20125;-45
2021/12/28 00:32:23;;;;;;;47.42;22.95;;;;;;;;;;2096622;28;20084;-45
2021/12/28 00:33:25;;;;;;;41.08;22.23;;;;;;;;;;2101832;28;20143;-45
2021/12/28 00:34:26;;;;;;;50.97;25.17;;;;;;;;;;2105064;28;20554;-45
2021/12/28 00:35:29;;;;;;;50.42;23.55;;;;;;;;;;2106564;28;20090;-44
2021/12/28 00:36:30;;;;;;;52.13;25.25;;;;;;;;;;2105312;28;20050;-45
2021/12/28 00:37:31;;;;;;;54.33;25.45;;;;;;;;;;2106369;28;20134;-45
2021/12/28 00:38:33;;;;;;;46.72;24.13;;;;;;;;;;2106553;28;20408;-45
2021/12/28 00:39:34;;;;;;;51.50;24.65;;;;;;;;;;2104087;28;20400;-45
2021/12/28 00:40:35;;;;;;;56.15;26.70;;;;;;;;;;2106300;28;20046;-45
2021/12/28 00:41:36;;;;;;;53.72;25.20;;;;;;;;;;2106549;28;20181;-44
2021/12/28 00:42:37;;;;;;;51.50;25.70;;;;;;;;;;2104048;28;20451;-44
2021/12/28 00:43:38;;;;;;;50.40;25.67;;;;;;;;;;2106514;28;20416;-46
2021/12/28 00:44:39;;;;;;;58.75;25.75;;;;;;;;;;2106460;28;20097;-46
2021/12/28 00:45:40;;;;;;;51.75;25.70;;;;;;;;;;2105059;28;20514;-45
2021/12/28 00:46:42;;;;;;;54.05;25.23;;;;;;;;;;2106439;28;20050;-44
2021/12/28 00:47:43;;;;;;;50.78;25.40;;;;;;;;;;2105998;28;20128;-44
2021/12/28 00:48:44;;;;;;;52.92;26.05;;;;;;;;;;2106154;28;20146;-45
2021/12/28 00:49:45;;;;;;;42.40;22.05;;;;;;;;;;2098171;28;20268;-44
2021/12/28 00:50:47;;;;;;;52.33;26.75;;;;;;;;;;2098346;28;20528;-45
2021/12/28 00:51:48;;;;;;;50.33;25.10;;;;;;;;;;2107924;28;20061;-45
2021/12/28 00:52:49;;;;;;;48.15;24.55;;;;;;;;;;2114829;28;20476;-44
2021/12/28 00:53:50;;;;;;;47.15;24.48;;;;;;;;;;2112374;28;20481;-45
2021/12/28 00:54:51;;;;;;;45.20;23.98;;;;;;;;;;2101799;28;20382;-44
2021/12/28 00:55:52;;;;;;;47.33;22.60;;;;;;;;;;2098105;28;20074;-44
2021/12/28 00:56:53;;;;;;;47.03;22.95;;;;;;;;;;2098630;28;20140;-45
2021/12/28 00:57:54;;;;;;;43.80;22.30;;;;;;;;;;2110722;28;20044;-47
2021/12/28 00:58:55;;;;;;;43.50;21.60;;;;;;;;;;2114802;28;20551;-48
2021/12/28 00:59:56;;;;;;;42.95;22.08;;;;;;;;;;2109852;28;20051;-47
2021/12/28 01:00:57;;;;;;;43.80;23.05;;;;;;;;;;2104848;28;20048;-47
2021/12/28 01:01:58;;;;;;;44.83;23.35;;;;;;;;;;2106421;28;20055;-48
2021/12/28 01:03:01;;;;;;;39.78;20.60;;;;;;;;;;2105456;28;20073;-51
2021/12/28 01:04:02;;;;;;;39.53;20.75;;;;;;;;;;2104924;28;20461;-49
2021/12/28 01:05:04;;;;;;;43.92;20.73;;;;;;;;;;2106233;28;20043;-47
2021/12/28 01:06:05;;;;;;;40.33;19.83;;;;;;;;;;2104185;28;20044;-49
2021/12/28 01:07:06;;;;;;;42.17;21.30;;;;;;;;;;2099789;28;20079;-48
2021/12/28 01:08:08;;;;;;;36.78;19.35;;;;;;;;;;2097983;28;20052;-47
2021/12/28 01:09:09;;;;;;;38.83;19.88;;;;;;;;;;2104233;28;20130;-47
2021/12/28 01:10:12;;;;;;;40.55;20.02;;;;;;;;;;2105752;28;20123;-47
2021/12/28 01:11:13;;;;;;;39.20;20.80;;;;;;;;;;2106276;28;20130;-47
2021/12/28 01:12:14;;;;;;;35.23;19.50;;;;;;;;;;2104111;28;20446;-47
2021/12/28 01:13:15;;;;;;;41.45;20.40;;;;;;;;;;2106238;28;20044;-47
2021/12/28 01:14:16;;;;;;;39.85;20.70;;;;;;;;;;2106266;28;20412;-48
2021/12/28 01:15:17;;;;;;;39.08;19.85;;;;;;;;;;2103850;28;20040;-48
2021/12/28 01:16:19;;;;;;;38.05;18.95;;;;;;;;;;2106179;28;20550;-48
2021/12/28 01:17:20;;;;;;;38.83;20.77;;;;;;;;;;2106382;28;20044;-48
2021/12/28 01:18:22;;;;;;;39.55;21.05;;;;;;;;;;2105963;28;20493;-47
2021/12/28 01:19:23;;;;;;;41.53;21.85;;;;;;;;;;2098062;28;20506;-47
2021/12/28 01:20:24;;;;;;;39.07;21.23;;;;;;;;;;2097915;28;20059;-48
2021/12/28 01:21:25;;;;;;;36.78;19.60;;;;;;;;;;2104104;28;20056;-48
2021/12/28 01:22:26;;;;;;;40.45;20.48;;;;;;;;;;2106206;28;20048;-49
2021/12/28 01:23:27;;;;;;;41.00;21.33;;;;;;;;;;2105897;28;20048;-48
2021/12/28 01:24:28;;;;;;;38.15;20.13;;;;;;;;;;2104762;28;20130;-52
2021/12/28 01:25:30;;;;;;;46.85;23.27;;;;;;;;;;2097844;28;20106;-49
2021/12/28 01:26:31;;;;;;;42.78;21.60;;;;;;;;;;2098601;28;20056;-48
2021/12/28 01:27:32;;;;;;;36.90;19.33;;;;;;;;;;2105088;28;20521;-51
2021/12/28 01:28:33;;;;;;;39.50;19.90;;;;;;;;;;2106296;28;20083;-48
2021/12/28 01:29:34;;;;;;;39.22;19.20;;;;;;;;;;2104392;28;20123;-47
2021/12/28 01:30:36;;;;;;;40.70;20.15;;;;;;;;;;2111062;28;20044;-48
2021/12/28 01:31:37;;;;;;;35.42;18.17;;;;;;;;;;2114508;28;20047;-48
2021/12/28 01:32:39;;;;;;;38.67;20.20;;;;;;;;;;2101226;28;20127;-47
2021/12/28 01:33:41;;;;;;;32.28;18.33;;;;;;;;;;2112134;28;20528;-48
2021/12/28 01:34:43;;;;;;;40.88;21.48;;;;;;;;;;2114730;28;20053;-47
2021/12/28 01:35:44;;;;;;;45.72;23.13;;;;;;;;;;2108815;28;20124;-49
2021/12/28 01:36:46;;;;;;;44.05;22.52;;;;;;;;;;2104754;28;20551;-49
2021/12/28 01:37:47;;;;;;;37.85;21.88;;;;;;;;;;2106138;28;20048;-48
2021/12/28 01:38:48;;;;;;;44.55;23.35;;;;;;;;;;2106975;28;20122;-48
2021/12/28 01:39:49;;;;;;;44.10;22.10;;;;;;;;;;2099237;28;20139;-48
2021/12/28 01:40:50;;;;;;;42.90;21.90;;;;;;;;;;2097666;28;20055;-49
2021/12/28 01:41:51;;;;;;;40.40;21.38;;;;;;;;;;2105054;28;20040;-48
2021/12/28 01:43:05;;;;;;;45.00;23.23;;;;;;;;;;2098312;28;20071;-48
2021/12/28 01:44:08;;;;;;;47.78;23.88;;;;;;;;;;2097536;28;20119;-48
2021/12/28 01:45:09;;;;;;;46.13;23.88;;;;;;;;;;2103992;28;20054;-49
2021/12/28 01:46:11;;;;;;;35.97;18.17;;;;;;;;;;2106081;28;20126;-50
2021/12/28 01:47:15;;;;;;;40.65;22.23;;;;;;;;;;2105463;28;20093;-48
2021/12/28 01:48:18;;;;;;;46.20;22.58;;;;;;;;;;2104890;28;20142;-51
2021/12/28 01:49:19;;;;;;;47.67;23.10;;;;;;;;;;2106037;28;20052;-48
2021/12/28 01:50:21;;;;;;;45.15;22.67;;;;;;;;;;2104342;28;20044;-49
2021/12/28 01:51:23;;;;;;;43.50;22.63;;;;;;;;;;2108446;28;20097;-48
2021/12/28 01:52:24;;;;;;;48.05;22.88;;;;;;;;;;2105974;28;20889;-49
2021/12/28 01:53:26;;;;;;;48.00;22.63;;;;;;;;;;2105079;28;20047;-50
2021/12/28 01:54:27;;;;;;;46.80;23.88;;;;;;;;;;2104552;28;20092;-48
2021/12/28 01:55:28;;;;;;;44.50;22.33;;;;;;;;;;2105997;28;20558;-48
2021/12/28 01:56:31;;;;;;;44.55;23.25;;;;;;;;;;2104885;28;20071;-48
2021/12/28 01:57:32;;;;;;;50.72;25.08;;;;;;;;;;2105908;28;20475;-49
2021/12/28 01:58:33;;;;;;;45.33;22.77;;;;;;;;;;2106057;28;20051;-51
2021/12/28 01:59:34;;;;;;;44.60;22.77;;;;;;;;;;2106737;28;20046;-47
2021/12/28 02:00:36;;;;;;;43.22;22.50;;;;;;;;;;2098819;28;20049;-47
2021/12/28 02:01:38;;;;;;;46.25;23.40;;;;;;;;;;2097677;28;20049;-48
2021/12/28 02:02:39;;;;;;;44.60;23.33;;;;;;;;;;2101895;28;20086;-51
2021/12/28 02:03:41;;;;;;;51.95;25.52;;;;;;;;;;2105964;28;20044;-48
2021/12/28 02:04:42;;;;;;;48.53;24.55;;;;;;;;;;2106190;28;20235;-48
2021/12/28 02:05:43;;;;;;;49.00;24.10;;;;;;;;;;2103617;28;20043;-48
2021/12/28 02:06:45;;;;;;;45.97;24.17;;;;;;;;;;2114288;28;20504;-48
2021/12/28 02:07:46;;;;;;;51.13;23.42;;;;;;;;;;2114401;28;20058;-50
2021/12/28 02:08:47;;;;;;;40.97;22.07;;;;;;;;;;2102699;28;20421;-48
2021/12/28 02:09:48;;;;;;;43.13;22.85;;;;;;;;;;2097633;28;20052;-48
2021/12/28 02:10:53;;;;;;;46.27;24.03;;;;;;;;;;2097230;28;20059;-48
2021/12/28 02:11:54;;;;;;;45.53;23.85;;;;;;;;;;2103823;28;20139;-49
2021/12/28 02:12:55;;;;;;;44.08;22.65;;;;;;;;;;2105962;28;20052;-50
2021/12/28 02:13:56;;;;;;;50.10;24.38;;;;;;;;;;2105070;28;20052;-50
2021/12/28 02:14:57;;;;;;;50.13;23.98;;;;;;;;;;2107420;28;20043;-50
2021/12/28 02:15:59;;;;;;;47.95;24.60;;;;;;;;;;2114194;28;20408;-47
2021/12/28 02:17:00;;;;;;;52.42;25.35;;;;;;;;;;2110085;28;20127;-48
2021/12/28 02:18:02;;;;;;;47.20;23.57;;;;;;;;;;2108449;28;20043;-50
2021/12/28 02:19:03;;;;;;;;;;;;;;;;;;2114719;28;20400;-48
2021/12/28 02:20:06;;;;;;;43.58;21.27;;;;;;;;;;2109805;28;20383;-49
2021/12/28 02:21:08;;;;;;;45.70;22.95;;;;;;;;;;2103656;28;20127;-49
2021/12/28 02:22:09;;;;;;;48.10;24.25;;;;;;;;;;2105909;28;20052;-49
2021/12/28 02:23:11;;;;;;;45.13;22.50;;;;;;;;;;2105630;28;20049;-48
2021/12/28 02:24:11;;;;;;;45.53;23.17;;;;;;;;;;2101054;28;20116;-47
2021/12/28 02:25:13;;;;;;;51.40;25.87;;;;;;;;;;2097427;28;20051;-49
2021/12/28 02:26:14;;;;;;;;;;;;;;;;;;2103594;28;20044;-48
2021/12/28 02:27:15;;;;;;;46.25;20.95;;;;;;;;;;2099397;28;20389;-49
2021/12/28 02:28:16;;;;;;;45.72;22.17;;;;;;;;;;2097482;28;20123;-47
2021/12/28 02:29:17;;;;;;;47.47;23.27;;;;;;;;;;2101238;28;20059;-48
2021/12/28 02:30:19;;;;;;;50.53;22.63;;;;;;;;;;2104754;28;20044;-47
2021/12/28 02:31:21;;;;;;;47.45;24.70;;;;;;;;;;2105861;28;20050;-46
2021/12/28 02:32:24;;;;;;;48.10;23.45;;;;;;;;;;2100940;28;20060;-50
2021/12/28 02:33:26;;;;;;;48.47;23.98;;;;;;;;;;2097504;28;20291;-47
2021/12/28 02:34:27;;;;;;;;;;;;;;;;;;2097794;28;20186;-47
2021/12/28 02:35:29;;;;;;;46.80;20.60;;;;;;;;;;2105217;28;19920;-47
2021/12/28 02:36:30;;;;;;;51.08;25.90;;;;;;;;;;2097466;28;20131;-46
2021/12/28 02:37:31;;;;;;;52.63;24.20;;;;;;;;;;2097148;28;20458;-49
2021/12/28 02:38:33;;;;;;;46.85;23.08;;;;;;;;;;2105331;28;20051;-46
2021/12/28 02:39:34;;;;;;;50.83;25.08;;;;;;;;;;2097391;28;20173;-47
2021/12/28 02:40:36;;;;;;;53.38;25.60;;;;;;;;;;2098085;28;20440;-50
2021/12/28 02:41:37;;;;;;;47.28;23.38;;;;;;;;;;2103862;28;20048;-47
2021/12/28 02:42:39;;;;;;;44.60;21.67;;;;;;;;;;2105896;28;20050;-47
2021/12/28 02:43:40;;;;;;;48.33;24.10;;;;;;;;;;2104459;28;20127;-47
2021/12/28 02:44:41;;;;;;;46.50;22.45;;;;;;;;;;2103904;28;20131;-47
2021/12/28 02:45:47;;;;;;;50.58;25.70;;;;;;;;;;2105736;28;20052;-47
2021/12/28 02:46:48;;;;;;;47.08;23.63;;;;;;;;;;2104803;28;20096;-48
2021/12/28 02:47:49;;;;;;;46.78;23.08;;;;;;;;;;2111745;28;20040;-49
2021/12/28 02:48:51;;;;;;;47.63;24.42;;;;;;;;;;2114118;28;20123;-46
2021/12/28 02:49:52;;;;;;;47.75;24.63;;;;;;;;;;2107840;28;20052;-47
2021/12/28 02:50:55;;;;;;;43.83;21.88;;;;;;;;;;2112502;28;20087;-48
2021/12/28 02:51:56;;;;;;;45.05;23.60;;;;;;;;;;2114032;28;20393;-48
2021/12/28 02:52:57;;;;;;;49.17;25.03;;;;;;;;;;2107096;28;20059;-47
2021/12/28 02:53:58;;;;;;;45.13;23.90;;;;;;;;;;2105236;28;20048;-47
2021/12/28 02:55:00;;;;;;;42.97;23.35;;;;;;;;;;2105630;28;20048;-49
2021/12/28 02:56:01;;;;;;;48.85;22.90;;;;;;;;;;2103685;28;20078;-49
2021/12/28 02:57:02;;;;;;;46.00;22.98;;;;;;;;;;2113922;28;20134;-49
2021/12/28 02:58:04;;;;;;;39.97;21.50;;;;;;;;;;2114262;28;20130;-49
2021/12/28 02:59:05;;;;;;;48.22;24.77;;;;;;;;;;2104699;28;20117;-49
2021/12/28 03:00:06;;;;;;;49.50;23.15;;;;;;;;;;2097464;28;20045;-48
2021/12/28 03:01:09;;;;;;;47.63;23.15;;;;;;;;;;2097265;28;20120;-50
2021/12/28 03:02:10;;;;;;;46.67;22.30;;;;;;;;;;2105371;28;20056;-48
2021/12/28 03:03:13;;;;;;;45.05;23.15;;;;;;;;;;2114210;28;20052;-51
2021/12/28 03:04:13;;;;;;;45.25;23.08;;;;;;;;;;2113071;28;20144;-48
2021/12/28 03:05:15;;;;;;;48.30;22.53;;;;;;;;;;2104726;28;20064;-48
2021/12/28 03:06:17;;;;;;;41.45;21.85;;;;;;;;;;2105554;28;20054;-47
2021/12/28 03:07:18;;;;;;;46.83;23.58;;;;;;;;;;2105072;28;20443;-52
2021/12/28 03:08:20;;;;;;;43.87;22.23;;;;;;;;;;2104904;28;20077;-50
2021/12/28 03:09:21;;;;;;;47.63;22.98;;;;;;;;;;2105750;28;20147;-48
2021/12/28 03:10:22;;;;;;;48.03;24.67;;;;;;;;;;2104215;28;20043;-48
2021/12/28 03:11:24;;;;;;;44.88;22.00;;;;;;;;;;2104545;28;20059;-48
2021/12/28 03:12:25;;;;;;;;;;;;;;;;;;2106152;28;20194;-48
2021/12/28 03:13:30;;;;;;;42.17;20.70;;;;;;;;;;2103866;28;19985;-50
2021/12/28 03:14:31;;;;;;;51.65;23.98;;;;;;;;;;2111624;28;20126;-47
2021/12/28 03:15:32;;;;;;;47.80;24.37;;;;;;;;;;2114029;28;20047;-48
2021/12/28 03:16:33;;;;;;;45.33;23.98;;;;;;;;;;2109350;28;20068;-47
2021/12/28 03:17:35;;;;;;;45.45;21.92;;;;;;;;;;2101059;28;20044;-48
2021/12/28 03:18:36;;;;;;;53.58;25.13;;;;;;;;;;2097430;28;20131;-48
2021/12/28 03:19:37;;;;;;;44.72;23.48;;;;;;;;;;2099862;28;20490;-48
2021/12/28 03:20:39;;;;;;;45.55;23.27;;;;;;;;;;2113079;28;20551;-48
2021/12/28 03:21:41;;;;;;;46.70;23.98;;;;;;;;;;2114038;28;20370;-48
2021/12/28 03:22:42;;;;;;;48.03;23.63;;;;;;;;;;2108897;28;20126;-48
2021/12/28 03:23:45;;;;;;;44.10;23.10;;;;;;;;;;2105604;28;20135;-48
2021/12/28 03:24:45;;;;;;;;;;;;;;;;;;2106073;28;20131;-48
2021/12/28 03:25:46;;;;;;;50.00;20.75;;;;;;;;;;2106439;28;19919;-48
2021/12/28 03:26:47;;;;;;;38.65;20.23;;;;;;;;;;2105426;28;20580;-49
2021/12/28 03:27:48;;;;;;;39.70;21.35;;;;;;;;;;2105479;28;20052;-48
2021/12/28 03:28:50;;;;;;;40.33;22.58;;;;;;;;;;2104240;28;20059;-48
2021/12/28 03:29:51;;;;;;;49.28;23.55;;;;;;;;;;2105735;28;20102;-47
2021/12/28 03:30:54;;;;;;;43.03;23.40;;;;;;;;;;2105514;28;20075;-47
2021/12/28 03:31:55;;;;;;;46.20;23.63;;;;;;;;;;2099688;28;20102;-51
2021/12/28 03:32:57;;;;;;;46.53;23.88;;;;;;;;;;2097272;28;20098;-47
2021/12/28 03:33:58;;;;;;;44.63;23.65;;;;;;;;;;2098929;28;20211;-47
2021/12/28 03:34:59;;;;;;;42.80;24.95;;;;;;;;;;2108590;28;20403;-48
2021/12/28 03:36:01;;;;;;;43.33;23.58;;;;;;;;;;2115602;28;20051;-48
2021/12/28 03:37:03;;;;;;;41.67;23.23;;;;;;;;;;2112526;28;20058;-55
2021/12/28 03:38:04;;;;;;;43.50;22.95;;;;;;;;;;2105722;28;20049;-47
2021/12/28 03:39:05;;;;;;;40.85;22.33;;;;;;;;;;2107062;28;20473;-49
2021/12/28 03:40:07;;;;;;;43.72;23.15;;;;;;;;;;2104924;28;20115;-48
2021/12/28 03:41:09;;;;;;;42.67;21.80;;;;;;;;;;2106079;28;20055;-51
2021/12/28 03:42:10;;;;;;;43.75;21.77;;;;;;;;;;2106915;28;20135;-49
2021/12/28 03:43:11;;;;;;;43.10;22.73;;;;;;;;;;2106023;28;20565;-48
2021/12/28 03:44:14;;;;;;;40.85;21.63;;;;;;;;;;2101647;28;20120;-48
2021/12/28 03:45:15;;;;;;;37.33;20.42;;;;;;;;;;2098529;28;20127;-49
2021/12/28 03:46:17;;;;;;;41.30;21.02;;;;;;;;;;2101947;28;20048;-48
2021/12/28 03:47:18;;;;;;;40.42;21.45;;;;;;;;;;2105687;28;20040;-48
2021/12/28 03:48:19;;;;;;;34.67;19.92;;;;;;;;;;2106876;28;20576;-48
2021/12/28 03:49:20;;;;;;;47.58;23.40;;;;;;;;;;2107378;28;20131;-48
2021/12/28 03:50:25;;;;;;;39.35;20.88;;;;;;;;;;2099804;28;20048;-49
2021/12/28 03:51:26;;;;;;;38.05;21.05;;;;;;;;;;2098306;28;20639;-49
2021/12/28 03:52:28;;;;;;;40.45;20.80;;;;;;;;;;2103919;28;20040;-48
2021/12/28 03:53:29;;;;;;;43.08;21.85;;;;;;;;;;2106686;28;20058;-49
2021/12/28 03:54:30;;;;;;;44.05;20.52;;;;;;;;;;2106978;28;20048;-48
2021/12/28 03:55:32;;;;;;;38.77;20.27;;;;;;;;;;2105955;28;20645;-48
2021/12/28 03:56:33;;;;;;;46.58;23.95;;;;;;;;;;2115140;28;20412;-48
2021/12/28 03:57:34;;;;;;;44.00;21.63;;;;;;;;;;2115307;28;20180;-48
2021/12/28 03:58:35;;;;;;;41.25;22.67;;;;;;;;;;2105452;28;20465;-47
2021/12/28 03:59:36;;;;;;;42.40;22.33;;;;;;;;;;2106995;28;20048;-48
2021/12/28 04:00:44;;;;;;;42.55;23.42;;;;;;;;;;2106207;28;20436;-50
2021/12/28 04:01:45;;;;;;;42.35;20.33;;;;;;;;;;2102007;28;20480;-51
2021/12/28 04:02:47;;;;;;;42.00;22.88;;;;;;;;;;2098353;28;20186;-48
2021/12/28 04:03:48;;;;;;;47.60;24.52;;;;;;;;;;2099319;28;20138;-48
2021/12/28 04:04:49;;;;;;;44.47;22.30;;;;;;;;;;2110940;28;20044;-48
2021/12/28 04:05:51;;;;;;;38.38;21.63;;;;;;;;;;2115096;28;20404;-49
2021/12/28 04:06:52;;;;;;;;;;;;;;;;;;2110953;28;20117;-49
2021/12/28 04:07:53;;;;;;;32.95;16.33;;;;;;;;;;2104299;28;20381;-49
2021/12/28 04:08:56;;;;;;;45.38;23.13;;;;;;;;;;2098341;28;20623;-48
2021/12/28 04:10:01;;;;;;;41.80;22.00;;;;;;;;;;2102115;28;20140;-52
2021/12/28 04:11:13;;;;;;;38.03;20.55;;;;;;;;;;2101390;28;20068;-47
2021/12/28 04:12:14;;;;;;;39.78;21.63;;;;;;;;;;2098474;28;20053;-47
2021/12/28 04:13:15;;;;;;;44.23;22.23;;;;;;;;;;2102741;28;20055;-49
2021/12/28 04:14:17;;;;;;;42.50;22.77;;;;;;;;;;2098455;28;20118;-48
2021/12/28 04:15:17;;;;;;;40.42;21.55;;;;;;;;;;2098356;28;20451;-47
2021/12/28 04:16:19;;;;;;;41.47;22.63;;;;;;;;;;2105997;28;20084;-47
2021/12/28 04:17:20;;;;;;;43.95;21.88;;;;;;;;;;2098456;28;20135;-49
2021/12/28 04:18:21;;;;;;;37.13;21.83;;;;;;;;;;2098348;28;20045;-47
2021/12/28 04:19:22;;;;;;;42.65;22.70;;;;;;;;;;2103278;28;20480;-47
2021/12/28 04:20:23;;;;;;;37.50;20.30;;;;;;;;;;2106593;28;20052;-47
2021/12/28 04:21:24;;;;;;;42.42;22.60;;;;;;;;;;2106293;28;20075;-48
2021/12/28 04:22:25;;;;;;;41.73;21.37;;;;;;;;;;2105737;28;20047;-50
2021/12/28 04:23:27;;;;;;;40.70;22.25;;;;;;;;;;2098405;28;20048;-48
2021/12/28 04:24:28;;;;;;;39.38;21.00;;;;;;;;;;2099049;28;20067;-48
2021/12/28 04:25:49;;;;;;;42.13;21.95;;;;;;;;;;2100159;28;20045;-48
2021/12/28 04:26:49;;;;;;;41.83;21.70;;;;;;;;;;2098268;28;20375;-48
2021/12/28 04:27:51;;;;;;;44.42;22.38;;;;;;;;;;2102103;28;20043;-49
2021/12/28 04:28:52;;;;;;;39.75;21.00;;;;;;;;;;2105703;28;20123;-48
2021/12/28 04:29:53;;;;;;;41.97;21.17;;;;;;;;;;2106106;28;20046;-48
2021/12/28 04:30:53;;;;;;;45.45;22.40;;;;;;;;;;2103964;28;20481;-48
2021/12/28 04:31:55;;;;;;;40.08;21.42;;;;;;;;;;2097380;28;20433;-47
2021/12/28 04:32:56;;;;;;;40.33;22.20;;;;;;;;;;2098173;28;20044;-50
2021/12/28 04:33:57;;;;;;;41.30;22.83;;;;;;;;;;2101974;28;20054;-47
2021/12/28 04:35:03;;;;;;;42.88;22.08;;;;;;;;;;2106694;28;20044;-49
2021/12/28 04:36:04;;;;;;;;;;;;;;;;;;2106911;28;20071;-48
2021/12/28 04:37:05;;;;;;;39.60;18.45;;;;;;;;;;2103992;28;19927;-50
2021/12/28 04:38:06;;;;;;;38.22;20.13;;;;;;;;;;2106590;28;20048;-51
2021/12/28 04:39:12;;;;;;;42.25;21.92;;;;;;;;;;2106068;28;20063;-49
2021/12/28 04:40:13;;;;;;;41.70;21.17;;;;;;;;;;2104591;28;20044;-48
2021/12/28 04:41:14;;;;;;;42.97;21.73;;;;;;;;;;2106366;28;20496;-47
2021/12/28 04:42:15;;;;;;;39.22;22.40;;;;;;;;;;2106083;28;20072;-48
2021/12/28 04:43:16;;;;;;;35.65;20.63;;;;;;;;;;2101878;28;20043;-48
2021/12/28 04:44:23;;;;;;;35.67;19.67;;;;;;;;;;2097829;28;20044;-48
2021/12/28 04:45:25;;;;;;;42.28;22.23;;;;;;;;;;2099369;28;20052;-52
2021/12/28 04:46:26;;;;;;;40.80;21.33;;;;;;;;;;2105376;28;20052;-48
2021/12/28 04:47:27;;;;;;;42.87;23.40;;;;;;;;;;2106570;28;20043;-48
2021/12/28 04:48:28;;;;;;;45.65;23.48;;;;;;;;;;2104353;28;20811;-49
2021/12/28 04:49:29;;;;;;;46.93;23.93;;;;;;;;;;2112540;28;20044;-49
2021/12/28 04:50:36;;;;;;;41.65;22.83;;;;;;;;;;2114907;28;20078;-48
2021/12/28 04:51:38;;;;;;;38.47;21.50;;;;;;;;;;2107799;28;20623;-48
2021/12/28 04:52:39;;;;;;;39.42;21.08;;;;;;;;;;2105961;28;20048;-48
2021/12/28 04:53:40;;;;;;;44.28;22.30;;;;;;;;;;2106493;28;20079;-47
2021/12/28 04:54:43;;;;;;;44.30;22.98;;;;;;;;;;2105935;28;20500;-47
2021/12/28 04:55:44;;;;;;;;;;;;;;;;;;2098957;28;20132;-47
2021/12/28 04:56:45;;;;;;;40.47;19.60;;;;;;;;;;2097850;28;20288;-48
2021/12/28 04:57:47;;;;;;;33.92;18.77;;;;;;;;;;2102802;28;20130;-49
2021/12/28 04:58:47;;;;;;;44.00;23.25;;;;;;;;;;2106323;28;20549;-48
2021/12/28 04:59:49;;;;;;;39.90;22.47;;;;;;;;;;2106533;28;20076;-48
2021/12/28 05:00:50;;;;;;;39.92;21.65;;;;;;;;;;2103166;28;20058;-47
2021/12/28 05:01:51;;;;;;;44.63;22.00;;;;;;;;;;2097893;28;20045;-47
2021/12/28 05:02:52;;;;;;;40.30;21.92;;;;;;;;;;2097677;28;20548;-47
2021/12/28 05:03:54;;;;;;;45.80;24.33;;;;;;;;;;2107177;28;20047;-47
2021/12/28 05:04:55;;;;;;;41.30;23.23;;;;;;;;;;2114913;28;20059;-47
2021/12/28 05:05:56;;;;;;;49.95;24.42;;;;;;;;;;2113321;28;20404;-48
2021/12/28 05:06:57;;;;;;;47.13;23.35;;;;;;;;;;2101883;28;20082;-49
2021/12/28 05:07:58;;;;;;;41.23;21.37;;;;;;;;;;2097966;28;20045;-48
2021/12/28 05:08:59;;;;;;;47.67;23.15;;;;;;;;;;2098856;28;20055;-50
2021/12/28 05:10:00;;;;;;;42.60;23.13;;;;;;;;;;2105072;28;20044;-49
2021/12/28 05:11:01;;;;;;;44.20;24.10;;;;;;;;;;2098064;28;20123;-48
2021/12/28 05:12:03;;;;;;;36.70;21.57;;;;;;;;;;2098705;28;20401;-48
2021/12/28 05:13:04;;;;;;;42.58;22.60;;;;;;;;;;2103118;28;20135;-48
2021/12/28 05:14:05;;;;;;;44.30;22.73;;;;;;;;;;2098031;28;20040;-49
2021/12/28 05:15:07;;;;;;;42.03;23.08;;;;;;;;;;2099061;28;20468;-48
2021/12/28 05:16:13;;;;;;;46.05;21.70;;;;;;;;;;2111632;28;20611;-49
2021/12/28 05:17:14;;;;;;;45.53;23.92;;;;;;;;;;2114740;28;20047;-48
2021/12/28 05:18:15;;;;;;;42.17;22.30;;;;;;;;;;2109168;28;20044;-48
2021/12/28 05:19:16;;;;;;;46.13;24.95;;;;;;;;;;2106012;28;20130;-52
2021/12/28 05:20:18;;;;;;;43.90;22.83;;;;;;;;;;2106347;28;20512;-48
2021/12/28 05:21:19;;;;;;;42.55;22.60;;;;;;;;;;2104301;28;20052;-48
2021/12/28 05:22:20;;;;;;;45.30;24.07;;;;;;;;;;2105981;28;20050;-49
2021/12/28 05:23:21;;;;;;;46.60;24.92;;;;;;;;;;2106216;28;20116;-47
2021/12/28 05:24:22;;;;;;;43.93;22.73;;;;;;;;;;2104306;28;20064;-48
2021/12/28 05:25:23;;;;;;;42.50;22.92;;;;;;;;;;2114431;28;20054;-48
2021/12/28 05:26:24;;;;;;;44.97;24.33;;;;;;;;;;2114584;28;20555;-49
2021/12/28 05:27:25;;;;;;;47.60;24.92;;;;;;;;;;2105214;28;20127;-48
2021/12/28 05:28:26;;;;;;;49.30;25.23;;;;;;;;;;2097825;28;20045;-48
2021/12/28 05:29:27;;;;;;;49.13;25.77;;;;;;;;;;2097847;28;20488;-51
2021/12/28 05:30:28;;;;;;;47.07;25.40;;;;;;;;;;2105637;28;20135;-48
2021/12/28 05:31:30;;;;;;;47.38;25.42;;;;;;;;;;2097775;28;20703;-48
2021/12/28 05:32:31;;;;;;;45.95;24.52;;;;;;;;;;2096421;28;20052;-47
2021/12/28 05:33:32;;;;;;;49.35;25.48;;;;;;;;;;2104884;28;20069;-48
2021/12/28 05:34:33;;;;;;;46.95;24.63;;;;;;;;;;2097713;28;20053;-48
2021/12/28 05:35:34;;;;;;;52.50;27.00;;;;;;;;;;2098142;28;20367;-48
2021/12/28 05:36:35;;;;;;;48.97;26.17;;;;;;;;;;2107482;28;20438;-47
2021/12/28 05:37:37;;;;;;;51.05;25.60;;;;;;;;;;2114672;28;20147;-50
2021/12/28 05:38:38;;;;;;;49.05;26.08;;;;;;;;;;2112539;28;20048;-49
2021/12/28 05:39:39;;;;;;;47.40;25.80;;;;;;;;;;2104506;28;20122;-47
2021/12/28 05:40:41;;;;;;;45.13;25.52;;;;;;;;;;2106156;28;20406;-49
2021/12/28 05:41:42;;;;;;;44.67;24.33;;;;;;;;;;2104601;28;20382;-47
2021/12/28 05:42:43;;;;;;;43.45;24.80;;;;;;;;;;2105228;28;20507;-49
2021/12/28 05:43:44;;;;;;;48.40;25.57;;;;;;;;;;2106157;28;20055;-48
2021/12/28 05:44:45;;;;;;;46.00;24.48;;;;;;;;;;2104079;28;20688;-48
2021/12/28 05:45:46;;;;;;;48.23;26.50;;;;;;;;;;2111282;28;20050;-48
2021/12/28 05:46:47;;;;;;;47.55;25.52;;;;;;;;;;2114589;28;20075;-48
2021/12/28 05:47:48;;;;;;;46.40;24.90;;;;;;;;;;2109832;28;20451;-50
2021/12/28 05:48:49;;;;;;;47.90;26.35;;;;;;;;;;2102642;28;20133;-49
2021/12/28 05:49:50;;;;;;;45.03;25.58;;;;;;;;;;2097780;28;20521;-48
2021/12/28 05:50:51;;;;;;;47.33;25.95;;;;;;;;;;2101788;28;20061;-48
2021/12/28 05:51:52;;;;;;;55.10;26.77;;;;;;;;;;2101279;28;20055;-48
2021/12/28 05:52:53;;;;;;;47.67;25.67;;;;;;;;;;2097588;28;20849;-48
2021/12/28 05:53:54;;;;;;;45.10;25.40;;;;;;;;;;2101498;28;20056;-48
2021/12/28 05:54:55;;;;;;;51.42;26.55;;;;;;;;;;2105266;28;20130;-47
2021/12/28 05:55:57;;;;;;;55.95;26.52;;;;;;;;;;2105342;28;20440;-47
2021/12/28 05:56:58;;;;;;;46.42;25.98;;;;;;;;;;2104643;28;20112;-48
2021/12/28 05:57:59;;;;;;;49.38;26.00;;;;;;;;;;2105933;28;20044;-49
2021/12/28 05:59:00;;;;;;;49.22;26.55;;;;;;;;;;2106016;28;20542;-47
2021/12/28 06:00:01;;;;;;;45.80;23.67;;;;;;;;;;2107112;28;20040;-48
2021/12/28 06:01:02;;;;;;;52.17;26.23;;;;;;;;;;2097610;28;20589;-48